createdAt,value
2023-02-13T00:00:19.679Z,99258.50
2023-02-13T00:02:46.336Z,99257.50
2023-02-13T00:05:12.834Z,99255.75
2023-02-13T00:07:39.447Z,99252.19
2023-02-13T00:10:06.876Z,99260.91
2023-02-13T00:12:35.837Z,99260.25
2023-02-13T00:15:02.676Z,99261.09
2023-02-13T00:17:29.336Z,99263.72
2023-02-13T00:19:55.812Z,99267.09
2023-02-13T00:22:22.289Z,99263.72
2023-02-13T00:24:51.287Z,99260.19
2023-02-13T00:27:20.162Z,99256.84
2023-02-13T00:29:47.120Z,99254.19
2023-02-13T00:32:14.868Z,99248.28
2023-02-13T00:34:41.385Z,99249.09
2023-02-13T00:37:07.851Z,99255.03
2023-02-13T00:39:34.263Z,99250.97
2023-02-13T00:42:00.721Z,99255.28
2023-02-13T00:44:29.813Z,99250.13
2023-02-13T00:46:56.264Z,99250.06
2023-02-13T00:49:22.809Z,99250.13
2023-02-13T00:51:51.612Z,99255.44
2023-02-13T00:54:18.103Z,99244.31
2023-02-13T00:56:44.577Z,99252.03
2023-02-13T00:59:11.117Z,99243.31
2023-02-13T01:01:37.720Z,99234.72
2023-02-13T01:04:04.275Z,99237.31
2023-02-13T01:06:30.772Z,99247.72
2023-02-13T01:08:57.226Z,99245.22
2023-02-13T01:11:23.828Z,99249.41
2023-02-13T01:13:50.269Z,99245.81
2023-02-13T01:16:17.893Z,99248.44
2023-02-13T01:18:44.647Z,99251.88
2023-02-13T01:21:17.721Z,99253.50
2023-02-13T01:23:44.777Z,99251.97
2023-02-13T01:26:16.660Z,99255.47
2023-02-13T01:28:43.284Z,99249.28
2023-02-13T01:31:09.844Z,99252.81
2023-02-13T01:33:36.425Z,99247.78
2023-02-13T01:36:11.028Z,99247.91
2023-02-13T01:38:37.978Z,99246.22
2023-02-13T01:41:04.613Z,99246.22
2023-02-13T01:44:04.029Z,99233.44
2023-02-13T01:46:30.556Z,99238.56
2023-02-13T01:49:05.472Z,99240.28
2023-02-13T01:51:35.262Z,99240.31
2023-02-13T01:54:10.487Z,99236.00
2023-02-13T01:56:50.369Z,99242.78
2023-02-13T01:59:21.009Z,99249.50
2023-02-13T02:01:48.042Z,99254.81
2023-02-13T02:04:20.008Z,99248.72
2023-02-13T02:06:51.955Z,99256.34
2023-02-13T02:09:24.242Z,99259.81
2023-02-13T02:11:56.555Z,99256.34
2023-02-13T02:14:23.149Z,99258.09
2023-02-13T02:16:49.646Z,99258.97
2023-02-13T02:19:44.839Z,99258.19
2023-02-13T02:22:49.273Z,99252.28
2023-02-13T02:25:22.081Z,99250.63
2023-02-13T02:28:03.134Z,99252.34
2023-02-13T02:31:22.101Z,99251.50
2023-02-13T02:33:57.517Z,99260.97
2023-02-13T02:36:57.661Z,99255.81
2023-02-13T02:39:38.064Z,99258.44
2023-02-13T02:42:28.602Z,99263.63
2023-02-13T02:45:01.413Z,99257.66
2023-02-13T02:48:09.743Z,99250.84
2023-02-13T02:50:43.665Z,99249.94
2023-02-13T02:53:37.747Z,99249.09
2023-02-13T02:56:15.100Z,99243.88
2023-02-13T02:59:05.158Z,99246.50
2023-02-13T03:01:53.013Z,99242.22
2023-02-13T03:04:44.327Z,99242.13
2023-02-13T03:07:14.975Z,99246.41
2023-02-13T03:10:05.755Z,99245.63
2023-02-13T03:13:06.794Z,99243.94
2023-02-13T03:15:35.943Z,99241.44
2023-02-13T03:18:20.854Z,99235.22
2023-02-13T03:21:29.943Z,99248.94
2023-02-13T03:24:09.879Z,99243.94
2023-02-13T03:26:52.039Z,99241.44
2023-02-13T03:29:52.460Z,99244.88
2023-02-13T03:32:33.476Z,99231.94
2023-02-13T03:35:27.853Z,99231.09
2023-02-13T03:38:00.934Z,99234.69
2023-02-13T03:40:59.708Z,99222.59
2023-02-13T03:43:32.863Z,99232.00
2023-02-13T03:46:02.485Z,99223.47
2023-02-13T03:48:56.880Z,99228.56
2023-02-13T03:51:53.534Z,99231.19
2023-02-13T03:54:49.147Z,99232.13
2023-02-13T03:57:38.517Z,99231.31
2023-02-13T04:00:11.404Z,99238.06
2023-02-13T04:02:45.171Z,99235.31
2023-02-13T04:05:17.451Z,99236.34
2023-02-13T04:07:44.631Z,99244.78
2023-02-13T04:10:17.518Z,99236.34
2023-02-13T04:12:59.139Z,99241.41
2023-02-13T04:16:04.388Z,99242.38
2023-02-13T04:18:33.083Z,99237.22
2023-02-13T04:21:07.438Z,99243.28
2023-02-13T04:23:36.044Z,99236.34
2023-02-13T04:26:07.980Z,99238.00
2023-02-13T04:28:34.615Z,99240.69
2023-02-13T04:31:01.681Z,99237.19
2023-02-13T04:33:28.560Z,99229.38
2023-02-13T04:35:55.224Z,99234.56
2023-02-13T04:38:21.795Z,99239.81
2023-02-13T04:40:50.539Z,99231.25
2023-02-13T04:43:17.095Z,99234.69
2023-02-13T04:45:43.648Z,99232.09
2023-02-13T04:48:10.249Z,99225.16
2023-02-13T04:50:36.820Z,99229.41
2023-02-13T04:53:03.405Z,99230.31
2023-02-13T04:55:30.456Z,99237.31
2023-02-13T04:57:57.249Z,99230.38
2023-02-13T05:00:26.295Z,99229.56
2023-02-13T05:02:52.976Z,99214.06
2023-02-13T05:05:20.597Z,99215.75
2023-02-13T05:07:47.127Z,99210.59
2023-02-13T05:10:13.907Z,99221.69
2023-02-13T05:12:40.474Z,99218.31
2023-02-13T05:15:07.458Z,99219.25
2023-02-13T05:17:33.984Z,99215.84
2023-02-13T05:20:00.637Z,99211.63
2023-02-13T05:22:48.273Z,99215.00
2023-02-13T05:25:14.812Z,99214.13
2023-02-13T05:27:41.422Z,99209.94
2023-02-13T05:30:08.520Z,99209.06
2023-02-13T05:32:35.058Z,99220.22
2023-02-13T05:35:04.047Z,99216.81
2023-02-13T05:37:34.011Z,99223.59
2023-02-13T05:40:00.560Z,99217.63
2023-02-13T05:42:27.247Z,99215.16
2023-02-13T05:44:53.810Z,99217.66
2023-02-13T05:47:20.365Z,99231.38
2023-02-13T05:49:46.886Z,99227.09
2023-02-13T05:52:13.537Z,99228.06
2023-02-13T05:54:42.129Z,99233.09
2023-02-13T05:57:08.754Z,99235.72
2023-02-13T05:59:35.317Z,99233.91
2023-02-13T06:02:01.840Z,99237.41
2023-02-13T06:04:28.396Z,99234.09
2023-02-13T06:06:54.933Z,99230.63
2023-02-13T06:09:22.002Z,99233.13
2023-02-13T06:11:48.943Z,99237.44
2023-02-13T06:14:15.647Z,99233.13
2023-02-13T06:16:42.505Z,99246.03
2023-02-13T06:19:09.340Z,99241.69
2023-02-13T06:21:38.005Z,99247.69
2023-02-13T06:24:08.235Z,99257.22
2023-02-13T06:26:35.224Z,99260.66
2023-02-13T06:29:01.794Z,99260.63
2023-02-13T06:31:30.684Z,99266.66
2023-02-13T06:34:00.221Z,99264.94
2023-02-13T06:36:26.794Z,99261.41
2023-02-13T06:38:56.388Z,99267.34
2023-02-13T06:41:23.006Z,99276.81
2023-02-13T06:43:49.566Z,99279.44
2023-02-13T06:46:16.102Z,99281.09
2023-02-13T06:48:42.696Z,99281.78
2023-02-13T06:51:09.260Z,99288.75
2023-02-13T06:53:35.814Z,99287.13
2023-02-13T06:56:06.311Z,99290.56
2023-02-13T06:58:34.043Z,99292.25
2023-02-13T07:01:00.888Z,99291.44
2023-02-13T07:03:27.724Z,99298.28
2023-02-13T07:05:57.034Z,99295.69
2023-02-13T07:08:23.618Z,99293.91
2023-02-13T07:10:52.394Z,99294.81
2023-02-13T07:13:18.924Z,99304.25
2023-02-13T07:15:45.932Z,99306.84
2023-02-13T07:18:12.562Z,99310.25
2023-02-13T07:20:39.303Z,99312.78
2023-02-13T07:23:07.356Z,99317.03
2023-02-13T07:25:34.280Z,99323.13
2023-02-13T07:28:05.478Z,99325.72
2023-02-13T07:30:33.005Z,99321.41
2023-02-13T07:33:03.659Z,99329.13
2023-02-13T07:35:30.929Z,99331.75
2023-02-13T07:37:57.517Z,99325.66
2023-02-13T07:40:24.058Z,99332.56
2023-02-13T07:42:50.590Z,99332.53
2023-02-13T07:45:17.269Z,99335.16
2023-02-13T07:47:44.128Z,99335.97
2023-02-13T07:50:14.165Z,99335.88
2023-02-13T07:52:42.992Z,99335.13
2023-02-13T07:55:11.604Z,99329.13
2023-02-13T07:57:38.206Z,99339.47
2023-02-13T08:00:05.484Z,99341.97
2023-02-13T08:02:32.084Z,99343.72
2023-02-13T08:04:58.616Z,99343.66
2023-02-13T08:07:25.175Z,99345.28
2023-02-13T08:10:10.259Z,99346.22
2023-02-13T08:12:36.952Z,99349.72
2023-02-13T08:15:04.209Z,99354.81
2023-02-13T08:17:30.767Z,99341.00
2023-02-13T08:19:57.739Z,99352.13
2023-02-13T08:22:24.227Z,99347.91
2023-02-13T08:24:50.733Z,99348.72
2023-02-13T08:27:17.276Z,99351.25
2023-02-13T08:29:43.941Z,99352.84
2023-02-13T08:32:12.665Z,99346.06
2023-02-13T08:34:42.530Z,99348.63
2023-02-13T08:37:09.059Z,99345.97
2023-02-13T08:39:35.566Z,99349.38
2023-02-13T08:42:02.177Z,99353.72
2023-02-13T08:44:28.852Z,99347.84
2023-02-13T08:46:56.147Z,99348.63
2023-02-13T08:49:23.535Z,99348.53
2023-02-13T08:51:50.886Z,99351.16
2023-02-13T08:54:17.481Z,99354.50
2023-02-13T08:56:44.003Z,99358.97
2023-02-13T08:59:10.438Z,99359.56
2023-02-13T09:01:36.995Z,99359.59
2023-02-13T09:04:03.604Z,99354.41
2023-02-13T09:06:30.242Z,99353.53
2023-02-13T09:08:56.709Z,99358.84
2023-02-13T09:11:23.577Z,99364.03
2023-02-13T09:13:53.382Z,99364.78
2023-02-13T09:16:19.981Z,99364.88
2023-02-13T09:18:51.132Z,99357.91
2023-02-13T09:21:19.786Z,99368.22
2023-02-13T09:23:46.316Z,99361.97
2023-02-13T09:26:15.312Z,99362.03
2023-02-13T09:28:42.888Z,99362.19
2023-02-13T09:31:15.271Z,99360.44
2023-02-13T09:33:45.200Z,99361.94
2023-02-13T09:36:19.235Z,99367.81
2023-02-13T09:38:47.529Z,99362.56
2023-02-13T09:41:25.252Z,99369.53
2023-02-13T09:44:36.375Z,99367.88
2023-02-13T09:47:11.755Z,99369.78
2023-02-13T09:49:44.127Z,99375.53
2023-02-13T09:52:10.773Z,99377.13
2023-02-13T09:54:39.868Z,99378.16
2023-02-13T09:57:31.376Z,99384.25
2023-02-13T10:00:23.967Z,99384.22
2023-02-13T10:02:56.514Z,99373.81
2023-02-13T10:05:57.669Z,99379.84
2023-02-13T10:09:12.845Z,99375.53
2023-02-13T10:11:45.509Z,99380.66
2023-02-13T10:14:18.641Z,99375.34
2023-02-13T10:16:55.802Z,99363.44
2023-02-13T10:19:37.263Z,99373.81
2023-02-13T10:22:23.523Z,99376.16
2023-02-13T10:25:20.486Z,99375.16
2023-02-13T10:27:52.497Z,99367.53
2023-02-13T10:30:22.349Z,99366.75
2023-02-13T10:33:19.411Z,99378.81
2023-02-13T10:35:59.353Z,99366.75
2023-02-13T10:38:35.921Z,99361.31
2023-02-13T10:41:24.058Z,99363.63
2023-02-13T10:44:07.943Z,99360.41
2023-02-13T10:46:41.530Z,99369.78
2023-02-13T10:49:57.233Z,99361.28
2023-02-13T10:52:43.573Z,99353.41
2023-02-13T10:55:40.960Z,99351.94
2023-02-13T10:58:26.140Z,99360.06
2023-02-13T11:01:00.630Z,99360.94
2023-02-13T11:03:29.524Z,99349.75
2023-02-13T11:05:58.199Z,99355.97
2023-02-13T11:08:39.801Z,99356.59
2023-02-13T11:11:39.932Z,99351.22
2023-02-13T11:14:14.466Z,99350.44
2023-02-13T11:17:09.730Z,99354.00
2023-02-13T11:19:51.567Z,99352.47
2023-02-13T11:22:42.454Z,99350.59
2023-02-13T11:25:31.179Z,99347.16
2023-02-13T11:28:19.336Z,99334.97
2023-02-13T11:30:45.833Z,99335.88
2023-02-13T11:33:23.059Z,99341.88
2023-02-13T11:35:49.550Z,99343.09
2023-02-13T11:38:16.080Z,99346.56
2023-02-13T11:40:45.096Z,99348.63
2023-02-13T11:43:35.283Z,99343.06
2023-02-13T11:46:04.835Z,99343.16
2023-02-13T11:48:34.110Z,99346.28
2023-02-13T11:51:01.174Z,99351.75
2023-02-13T11:53:31.692Z,99348.34
2023-02-13T11:56:11.830Z,99341.50
2023-02-13T11:58:39.212Z,99342.78
2023-02-13T12:01:10.403Z,99340.03
2023-02-13T12:03:38.746Z,99353.44
2023-02-13T12:06:12.971Z,99347.16
2023-02-13T12:08:41.404Z,99339.59
2023-02-13T12:11:31.157Z,99334.13
2023-02-13T12:13:58.136Z,99322.38
2023-02-13T12:16:40.208Z,99321.81
2023-02-13T12:19:13.194Z,99325.09
2023-02-13T12:21:50.150Z,99314.66
2023-02-13T12:24:19.627Z,99321.00
2023-02-13T12:26:52.379Z,99318.84
2023-02-13T12:29:57.231Z,99317.50
2023-02-13T12:32:35.392Z,99319.50
2023-02-13T12:35:47.486Z,99316.66
2023-02-13T12:38:33.594Z,99317.53
2023-02-13T12:41:18.814Z,99315.03
2023-02-13T12:44:26.311Z,99311.41
2023-02-13T12:47:06.805Z,99301.19
2023-02-13T12:49:48.137Z,99303.41
2023-02-13T12:52:33.200Z,99302.66
2023-02-13T12:55:30.238Z,99310.66
2023-02-13T12:58:05.774Z,99305.41
2023-02-13T13:00:45.904Z,99300.97
2023-02-13T13:03:34.388Z,99298.22
2023-02-13T13:06:19.670Z,99290.28
2023-02-13T13:09:13.605Z,99301.34
2023-02-13T13:11:43.111Z,99303.94
2023-02-13T13:14:23.942Z,99301.22
2023-02-13T13:17:02.059Z,99304.66
2023-02-13T13:19:56.865Z,99303.81
2023-02-13T13:22:27.885Z,99298.84
2023-02-13T13:25:14.301Z,99305.84
2023-02-13T13:27:45.541Z,99306.72
2023-02-13T13:30:28.788Z,99301.69
2023-02-13T13:33:04.980Z,99300.31
2023-02-13T13:35:37.877Z,99299.44
2023-02-13T13:38:25.369Z,99297.81
2023-02-13T13:41:18.085Z,99290.13
2023-02-13T13:44:15.027Z,99283.97
2023-02-13T13:46:58.458Z,99284.97
2023-02-13T13:49:34.188Z,99285.44
2023-02-13T13:52:21.618Z,99288.91
2023-02-13T13:54:54.245Z,99277.53
2023-02-13T13:57:24.551Z,99281.13
2023-02-13T14:00:10.489Z,99276.84
2023-02-13T14:02:52.124Z,99284.47
2023-02-13T14:05:27.419Z,99291.81
2023-02-13T14:08:06.361Z,99285.94
2023-02-13T14:10:33.078Z,99286.47
2023-02-13T14:13:02.626Z,99291.44
2023-02-13T14:15:38.200Z,99293.31
2023-02-13T14:18:19.161Z,99291.44
2023-02-13T14:20:51.628Z,99290.78
2023-02-13T14:23:36.581Z,99288.06
2023-02-13T14:26:15.133Z,99280.56
2023-02-13T14:28:57.123Z,99271.97
2023-02-13T14:31:28.956Z,99272.91
2023-02-13T14:33:58.319Z,99272.88
2023-02-13T14:36:32.262Z,99270.00
2023-02-13T14:39:22.999Z,99268.56
2023-02-13T14:41:55.333Z,99274.09
2023-02-13T14:44:37.384Z,99268.78
2023-02-13T14:47:35.130Z,99274.72
2023-02-13T14:50:04.867Z,99280.94
2023-02-13T14:52:46.515Z,99281.66
2023-02-13T14:55:34.327Z,99280.31
2023-02-13T14:58:07.685Z,99274.28
2023-02-13T15:00:43.093Z,99268.09
2023-02-13T15:03:25.066Z,99270.50
2023-02-13T15:05:54.368Z,99273.19
2023-02-13T15:08:24.134Z,99263.13
2023-02-13T15:10:53.471Z,99259.66
2023-02-13T15:13:33.179Z,99255.66
2023-02-13T15:16:05.333Z,99253.09
2023-02-13T15:18:40.831Z,99254.88
2023-02-13T15:21:18.711Z,99254.72
2023-02-13T15:23:55.521Z,99258.44
2023-02-13T15:26:24.346Z,99249.56
2023-02-13T15:29:25.930Z,99249.56
2023-02-13T15:31:56.193Z,99248.94
2023-02-13T15:34:24.680Z,99256.88
2023-02-13T15:36:52.165Z,99250.03
2023-02-13T15:39:23.936Z,99248.09
2023-02-13T15:41:58.161Z,99242.94
2023-02-13T15:44:36.671Z,99246.66
2023-02-13T15:47:09.809Z,99244.00
2023-02-13T15:49:43.537Z,99249.09
2023-02-13T15:52:15.437Z,99249.19
2023-02-13T15:54:49.579Z,99252.50
2023-02-13T15:57:16.772Z,99251.94
2023-02-13T15:59:43.648Z,99243.28
2023-02-13T16:02:47.814Z,99252.03
2023-02-13T16:05:17.137Z,99236.22
2023-02-13T16:07:53.650Z,99239.69
2023-02-13T16:10:36.648Z,99248.69
2023-02-13T16:13:05.805Z,99245.28
2023-02-13T16:15:36.638Z,99241.13
2023-02-13T16:18:04.072Z,99240.81
2023-02-13T16:20:34.117Z,99243.44
2023-02-13T16:23:21.087Z,99240.28
2023-02-13T16:25:48.718Z,99236.97
2023-02-13T16:28:19.875Z,99233.31
2023-02-13T16:30:57.109Z,99238.63
2023-02-13T16:33:28.448Z,99231.81
2023-02-13T16:36:00.417Z,99234.47
2023-02-13T16:38:35.933Z,99232.78
2023-02-13T16:41:04.375Z,99237.91
2023-02-13T16:43:38.735Z,99237.84
2023-02-13T16:46:20.069Z,99243.00
2023-02-13T16:49:01.894Z,99244.84
2023-02-13T16:51:36.719Z,99245.53
2023-02-13T16:54:15.733Z,99251.53
2023-02-13T16:56:47.073Z,99254.78
2023-02-13T16:59:38.338Z,99258.28
2023-02-13T17:02:14.400Z,99267.84
2023-02-13T17:05:05.327Z,99254.88
2023-02-13T17:07:36.338Z,99260.03
2023-02-13T17:10:07.012Z,99266.84
2023-02-13T17:12:37.445Z,99270.13
2023-02-13T17:15:05.120Z,99266.75
2023-02-13T17:17:34.862Z,99261.75
2023-02-13T17:20:04.108Z,99267.63
2023-02-13T17:22:40.258Z,99266.19
2023-02-13T17:25:15.851Z,99268.06
2023-02-13T17:27:43.063Z,99271.44
2023-02-13T17:30:15.439Z,99267.25
2023-02-13T17:32:42.537Z,99268.88
2023-02-13T17:35:11.261Z,99265.50
2023-02-13T17:37:38.508Z,99267.28
2023-02-13T17:40:05.682Z,99265.59
2023-02-13T17:42:36.327Z,99270.75
2023-02-13T17:45:02.906Z,99270.63
2023-02-13T17:47:30.446Z,99269.22
2023-02-13T17:50:08.269Z,99272.63
2023-02-13T17:52:35.711Z,99267.31
2023-02-13T17:55:04.882Z,99268.16
2023-02-13T17:57:31.386Z,99260.50
2023-02-13T17:59:59.193Z,99255.41
2023-02-13T18:02:27.200Z,99261.38
2023-02-13T18:04:53.771Z,99259.72
2023-02-13T18:07:22.881Z,99261.31
2023-02-13T18:09:49.454Z,99253.72
2023-02-13T18:12:19.063Z,99257.91
2023-02-13T18:14:45.882Z,99258.59
2023-02-13T18:17:12.641Z,99252.66
2023-02-13T18:19:39.600Z,99261.41
2023-02-13T18:22:07.854Z,99260.41
2023-02-13T18:24:36.522Z,99261.31
2023-02-13T18:27:05.490Z,99260.50
2023-02-13T18:29:32.011Z,99268.00
2023-02-13T18:31:58.583Z,99274.84
2023-02-13T18:34:25.179Z,99268.16
2023-02-13T18:36:51.828Z,99271.66
2023-02-13T18:39:20.875Z,99269.91
2023-02-13T18:41:50.400Z,99271.72
2023-02-13T18:44:27.007Z,99267.59
2023-02-13T18:46:54.508Z,99264.88
2023-02-13T18:49:21.026Z,99252.81
2023-02-13T18:51:47.600Z,99251.28
2023-02-13T18:54:14.165Z,99263.34
2023-02-13T18:56:40.635Z,99268.56
2023-02-13T18:59:07.164Z,99266.81
2023-02-13T19:01:35.365Z,99272.06
2023-02-13T19:04:02.938Z,99263.44
2023-02-13T19:06:32.442Z,99272.06
2023-02-13T19:08:59.564Z,99272.06
2023-02-13T19:11:27.167Z,99264.38
2023-02-13T19:14:00.444Z,99262.53
2023-02-13T19:16:29.278Z,99256.44
2023-02-13T19:18:58.711Z,99264.22
2023-02-13T19:21:28.348Z,99257.28
2023-02-13T19:23:55.568Z,99253.72
2023-02-13T19:26:24.240Z,99259.91
2023-02-13T19:28:51.101Z,99262.50
2023-02-13T19:31:24.996Z,99274.56
2023-02-13T19:33:52.318Z,99273.78
2023-02-13T19:36:21.422Z,99275.59
2023-02-13T19:38:52.776Z,99269.47
2023-02-13T19:41:19.362Z,99263.41
2023-02-13T19:43:53.591Z,99259.09
2023-02-13T19:46:26.879Z,99266.00
2023-02-13T19:48:55.867Z,99257.41
2023-02-13T19:51:25.209Z,99259.88
2023-02-13T19:53:59.051Z,99272.91
2023-02-13T19:56:27.423Z,99271.22
2023-02-13T19:58:56.501Z,99258.09
2023-02-13T20:01:25.340Z,99265.09
2023-02-13T20:03:52.613Z,99271.22
2023-02-13T20:06:33.373Z,99260.97
2023-02-13T20:09:02.082Z,99255.53
2023-02-13T20:11:31.186Z,99259.94
2023-02-13T20:14:01.715Z,99270.25
2023-02-13T20:16:32.807Z,99262.63
2023-02-13T20:19:01.755Z,99259.28
2023-02-13T20:21:28.228Z,99255.53
2023-02-13T20:23:54.639Z,99248.56
2023-02-13T20:26:21.273Z,99242.56
2023-02-13T20:28:48.233Z,99242.28
2023-02-13T20:31:16.449Z,99245.97
2023-02-13T20:33:46.629Z,99241.88
2023-02-13T20:36:19.501Z,99250.44
2023-02-13T20:38:46.196Z,99239.22
2023-02-13T20:41:15.870Z,99240.94
2023-02-13T20:43:42.999Z,99242.63
2023-02-13T20:46:10.414Z,99234.97
2023-02-13T20:48:37.732Z,99233.22
2023-02-13T20:51:07.407Z,99234.16
2023-02-13T20:53:34.882Z,99233.91
2023-02-13T20:56:13.366Z,99231.31
2023-02-13T20:58:41.701Z,99229.81
2023-02-13T21:01:18.314Z,99222.97
2023-02-13T21:03:47.841Z,99218.59
2023-02-13T21:06:14.520Z,99215.03
2023-02-13T21:08:43.140Z,99212.56
2023-02-13T21:11:11.951Z,99216.69
2023-02-13T21:13:40.199Z,99211.44
2023-02-13T21:16:14.328Z,99209.78
2023-02-13T21:18:42.118Z,99210.69
2023-02-13T21:21:10.867Z,99221.16
2023-02-13T21:23:39.817Z,99202.88
2023-02-13T21:26:13.115Z,99213.25
2023-02-13T21:28:40.880Z,99208.72
2023-02-13T21:31:08.672Z,99209.78
2023-02-13T21:33:35.265Z,99199.63
2023-02-13T21:36:03.495Z,99202.88
2023-02-13T21:38:30.169Z,99195.97
2023-02-13T21:41:06.601Z,99202.88
2023-02-13T21:43:37.684Z,99205.53
2023-02-13T21:46:13.701Z,99206.38
2023-02-13T21:48:41.209Z,99202.19
2023-02-13T21:51:10.463Z,99214.25
2023-02-13T21:53:37.699Z,99204.84
2023-02-13T21:56:10.772Z,99197.94
2023-02-13T21:58:39.520Z,99186.72
2023-02-13T22:01:25.945Z,99183.31
2023-02-13T22:04:00.314Z,99191.91
2023-02-13T22:06:30.284Z,99176.91
2023-02-13T22:09:02.278Z,99189.38
2023-02-13T22:11:29.094Z,99184.28
2023-02-13T22:13:57.195Z,99184.28
2023-02-13T22:16:23.940Z,99182.53
2023-02-13T22:18:50.681Z,99177.09
2023-02-13T22:21:19.501Z,99175.41
2023-02-13T22:23:47.322Z,99172.97
2023-02-13T22:26:23.996Z,99174.47
2023-02-13T22:28:51.877Z,99176.97
2023-02-13T22:31:19.138Z,99190.72
2023-02-13T22:33:55.324Z,99194.28
2023-02-13T22:36:29.278Z,99199.63
2023-02-13T22:38:55.815Z,99197.97
2023-02-13T22:41:26.753Z,99190.22
2023-02-13T22:43:53.558Z,99188.53
2023-02-13T22:46:23.348Z,99189.22
2023-02-13T22:48:53.249Z,99192.81
2023-02-13T22:51:31.685Z,99194.53
2023-02-13T22:53:59.204Z,99194.47
2023-02-13T22:56:26.817Z,99198.66
2023-02-13T22:58:53.613Z,99191.81
2023-02-13T23:01:22.134Z,99184.16
2023-02-13T23:03:51.350Z,99185.97
2023-02-13T23:06:18.502Z,99197.25
2023-02-13T23:08:45.262Z,99188.69
2023-02-13T23:11:33.406Z,99174.78
2023-02-13T23:14:00.247Z,99180.88
2023-02-13T23:16:27.508Z,99184.28
2023-02-13T23:18:56.580Z,99187.91
2023-02-13T23:21:24.067Z,99197.47
2023-02-13T23:23:50.970Z,99185.41
2023-02-13T23:26:17.526Z,99196.44
2023-02-13T23:28:44.003Z,99200.81
2023-02-13T23:31:10.628Z,99202.69
2023-02-13T23:33:37.146Z,99205.13
2023-02-13T23:36:03.860Z,99218.03
2023-02-13T23:38:30.548Z,99222.22
2023-02-13T23:40:57.272Z,99224.78
2023-02-13T23:43:23.909Z,99213.72
2023-02-13T23:45:50.361Z,99221.44
2023-02-13T23:48:16.856Z,99216.38
2023-02-13T23:50:47.385Z,99212.94
2023-02-13T23:53:14.120Z,99198.31
2023-02-13T23:55:40.577Z,99201.88
2023-02-13T23:58:07.019Z,99204.34
